Heat Index SAI AWOS Graphical Display Untitled Document
Bertrand Chaffee Hospital Heliport (2NK6) Springville, New York, USA
340
20:27
28/07/2014
06
N/A
N/A
29.79
N/A
1420
58(F), 14(C)
56(F), 13(C)
57 F
94%
BKN017 OVC022
2
-RA
0"
N/A
20:27 zulu Wind 340 at 06 Knots, Altimeter 29.79
METAR K2NK6 282027Z AUTO 34006KT 2SM -RA BKN017 OVC022 14/13 A2979 A02 P0000
METAR:
FAA Disclaimer--Advisory Use ONLY, not for flight info--
INFO:
Wind Direction:
Wind Speed:
Wind Gust:
Wind Variable:
Altimeter:
Dens Alt:
Elev:
Temp:
Dwpt:
Wind Chill
Rel Humidity:
Ceiling:
Visibility:
Prsnt Wea:
PCPN:
Remarks:
How to read the WebPage